Productos aeronáuticos

  • SIGMET
  • METAR / SPECI
  • TAF
  • AIREP
  • Aviso de aeródromo
  • Pronárea
  • Carta superficie
Fecha : 24/05/2017
FTUY 01 SUMU 24 23 30
SUMU TAF 242330Z 2500/2600 13006KT 1000 DZBR OVC002 TX19/2518Z TN16/2510Z TEMPO 2501/2508 13005KT 0800 DZFG OVC003 BECMG 2509/2513 12010KT 7000 RA OVC008 PROB30 TEMPO 2514/2522 18010G25KT 5000 TSRA BKN010 FEW040CB OVC040=
SULS TAF 242330Z 2500/2600 17006KT 2000 BR OVC002 TX18/2518Z TN16/2510Z TEMPO 2501/2509 13005KT 0800 DZFG OVC003 BECMG 2510/2514 12010KT 6000 RA OVC008 PROB40 TEMPO 2515/2600 18010G25KT 5000 TSRA BKN010 FEW040CB OVC040=
SUAA TAF 242330Z 2500/2600 16005KT 0500 DZFG OVC006 TX19/2518Z TN16/2510Z TEMPO 2501/2508 13005KT 0800 DZFG OVC003 BECMG 2509/2513 12010KT 7000 RA OVC008 PROB30 TEMPO 2514/2522 18010G25KT 5000 TSRA BKN010 FEW040CB OVC040=
SUCA TAF 242330Z 2500/2600 14005KT 8000 FEW007 OVC040 TX20/2518Z TN15/2510Z TEMPO 2501/2508 13005KT 0800 DZFG OVC003 BECMG 2509/2513 12010KT 7000 RA OVC008 PROB30 TEMPO 2514/2522 18010G25KT 5000 TSRA BKN010 FEW040CB OVC040=
SUDU TAF 242330Z 2500/2600 10005KT 5000 BR OVC003 TX21/2518Z TN17/2510Z TEMPO 2502/2511 13005KT 0800 DZFG OVC003 TEMPO 2512/2600 18015G30KT 3000 TSRA BKN010 FEW040CB OVC040=
SUSO TAF 242330Z 2500/2600 02005KT 9999 OVC013 TX23/2518Z TN18/2510Z PROB40 TEMPO 2501/2510 13005KT 0800 DZFG OVC005 TEMPO 2511/2600 32015G30KT 3000 TSRA BKN010 FEW040CB OVC040=
SURV TAF 242330Z 2500/2600 05008KT 5000 TSRA BKN008 FEW040CB TX23/2518Z TN18/2510Z PROB40 TEMPO 2506/2511 01005KT 1500 DZBR OVC005 TEMPO 2512/2600 32015G30KT 3000 TSRA BKN010 FEW040CB OVC040=

Predictor : Alejandro Curiel


Mensajes TAF vigentes - Internacionales


Argentina
TAF SABE 242300Z 2500/2524 14010KT 4000 DZ BR BKN005 OVC010 TX16/2519Z TN14/2510Z BECMG 2504/2507 2000 DZ BR BKN003 BECMG 2512/2515 16010KT 5000 RA BKN006 OVC010
TAF SAEZ 242300Z 2500/2524 15005KT 6000 SCT015 OVC030 TX16/2518Z TN14/2509Z BECMG 2504/2507 1500 BR DZ BKN008 OVC020 BECMG 2512/2515 16010KT 5000 RADZ BKN020 OVC035 BECMG 2521/2524 19005KT 8000 BKN025 BKN035
TAF SACO 242300Z 2500/2524 VRB05KT 7000 BR BKN020 TX19/2518Z TN09/2510Z BECMG 2503/2506 32005KT 2000 BR DZ OVC010 TEMPO 2509/2512 VRB03KT 0600 FG OVC006 BECMG 2513/2516 16010KT 9999 SCT025
TAF SAAR 242300Z 2500/2524 11005KT 8000 BKN015 BKN090 TX18/2519Z TN14/2510Z BECMG 2503/2507 3000 BR DZ BKN004 OVC008 PROB30 2508/2513 0500 FG OVC002 BECMG 2514/2516 18010KT 8000 -RA OVC010 BKN040 PROB40 TEMPO 2517/2520 5000 TSRA FEW035CB OVC040
TAF SAME 242300Z 2500/2524 14005KT 9999 SCT040 SCT080 TN06/2510Z TX11/2520Z PROB40 TEMPO 2510/2514 16005KT 6000 HZFU BKN035
Bolivia
TAF SLLP 242235Z 2500/2524 07005KT 4000E VCFG FEW002 SCT012 BKN070 TX11/2520Z TN01/2510Z TEMPO 2502/2506 6000 RA SCT012 FEW017CB BKN070 PROB30 TEMPO 2507/2511 0500 FG BECMG 2513/2515 14008KT 9999 NSW FEW010 SCT015 FEW017CB BKN070 TEMPO 2518/2522 33010KT 8000 TSRA
Brasil
TAF SBFI 242230Z 2500/2524 06004KT CAVOK TN21/2509Z TX29/2518Z PROB30 2508/2511 3000 BR NSC BECMG 2516/2518 04012KT BECMG 2520/2522 04008K T RMK PDV
TAF SBFL 242230Z 2500/2524 35006KT CAVOK TN20/2509Z TX25/2518Z BECMG 2502/2504 01010KT BECMG 2512/2514 03015KT BECMG 2518/2520 34010KT RMK PDV
TAF SBPA 242230Z 2500/2524 10004KT CAVOK TN18/2509Z TX28/2518Z BECMG 2502/2504 05005KT BKN015 PROB40 TEMPO 2504/2506 8000 RA BECMG 2510/2512 05003K T CAVOK BECMG 2514/2516 36007KT RMK PDV
TAF SBBR 242100Z 2500/2524 00000KT CAVOK TN19/2506Z TX28/2516Z BECMG 2508/2510 12007KT 8000 NSC PROB40 TEMPO 2510/2513 BKN010 BECMG 2514/2516 07007KT BKN040 BECMG 2519/2521 8000 NSC RMK PDB
TAF SBRJ 242100Z 2500/2512 17005KT CAVOK TN19/2509Z TX24/2512Z BECMG 2502/2505 35003KT BECMG 2508/2511 03004KT 4000 BR SCT010 RMK PHC
TAF SBGR 242003Z 2500/2606 08003KT CAVOK TN14/2509Z TX26/2517Z PROB30 TEMPO 2506/2508 4000 BR BKN004 PROB30 2508/2511 0200 FG OVC002 BECMG 2512/2514 9999 SCT035 TEMPO 2516/2520 34005KT BECMG 2521/2523 10003KT BKN012 BECMG 2602/2604 05005KT CAVOK RMK PHN
TAF SBSP 242003Z 2500/2524 06003KT CAVOK TN15/2509Z TX26/2517Z PROB30 2507/2511 4000 BR BKN004 BECMG 2512/2514 9999 SCT030 TEMPO 2516/2518 34005KT BECMG 2520/2522 13003KT BKN012 RMK PHN
Colombia
TAF SKBO 242300Z 2500/2600 06007KT 9999 SCT020 BKN090 TEMPO 2508/2512 5000 BR DZ SCT012 BECMG 2515/2517 12010KT TEMPO 2519/2521 8000 DZRA SCT017CB TX21/2518Z TN09/2511Z
Chile
TAF COR SCEL 242300Z 2500/2524 05004KT 7000 SCT050 BKN090 TX12/2519Z TN07/2511Z BECMG 2501/2503 06004KT SHRA SCT020 BKN040 BKN100 TEMPO 2504/2513 VRB02KT 4000 RA SCT008 BKN015 BKN030 BECMG 2515/2517 7000 NSW BECMG 2519/2521 19004KT 9999 SCT070 BKN140
TAF SCCI 242250Z 2500/2600 24025G40KT 9000 -SHRA SCT030 TNM00/2511Z TX04/2518Z PROB30 TEMPO 2500/2504 24032G52KT BECMG 2501/2503 8000 -SHRASN BKN015 PROB40 TEMPO 2504/2514 1500 SHSN OVC005 BECMG 2512/2514 9000 FEW035 BECMG 2518/2520 23015G30
Ecuador
SEQM 250000Z 2501/2524 12004KT 9999 BKN026 FM250600 16003KT 9999 SCT030 BECMG 2517/2518 36012KT TEMPO 2518/2521 BKN030 TX24/2519Z TN08/2511Z
EEUU
KMIA 250415Z 2504/2524 22010KT P6SM SCT020 BKN100 FM251400 24016G25KT P6SM -SHRA VCTS SCT030CB BKN050 OVC080
KJFK 250238Z 2503/2606 09011KT P6SM SCT035 BKN250 FM250600 08012KT P6SM BKN025 FM250900 07014KT 6SM -RA BR SCT008 BKN012 FM251200 08016G23KT 2SM -RA BR OVC006 FM251700 09014KT 4SM -RA BR OVC004 FM252100 08009KT 2SM -RA BR OVC004
KLGA 250238Z 2503/2524 10011KT P6SM SCT035 BKN250 FM250600 08012KT P6SM BKN025 FM250900 07013KT 6SM -RA BR SCT008 BKN012 FM251200 07019G26KT 2SM -RA BR OVC005 FM251800 07012G20KT 2SM -RA BR OVC004
KIAD 250158Z 2502/2606 12010G20KT 6SM -RA BR OVC015 FM250400 09010G18KT 6SM -RA BR OVC008 FM250600 07011G18KT 4SM RA BR OVC005 FM251200 12006KT P6SM OVC005 FM251500 19005KT P6SM OVC015 FM251800 21007KT P6SM -SHRA OVC035 FM260000 25006KT P6SM BKN110
KDCA 242325Z 2500/2524 10007KT P6SM OVC015 FM250300 09011G20KT P6SM -RA OVC011 FM250400 07013G22KT 6SM -RA BR OVC008 FM250700 07012G22KT 4SM RA BR OVC005 FM251200 12006KT P6SM OVC008 FM251600 19009KT P6SM -SHRA BKN045
España
TAF LEBL 242300Z 2500/2524 VRB04KT 9999 FEW020 TX27/2512Z TN19/2506Z TEMPO 2504/2507 32010G20KT BECMG 2508/2510 22010KT BECMG 2520/2522 VRB03KT
TAF LEMD 242300Z 2500/2606 VRB05KT CAVOK TX34/2516Z TN16/2506Z PROB30 TEMPO 2500/2502 14008G18KT
Francia
TAF LFPO 242300Z 2500/2606 06008KT CAVOK
Inglaterra
TAF EGLL 242253Z 2500/2606 19004KT CAVOK PROB40 TEMPO 2503/2508 8000 BECMG 2513/2516 10010KT
Panamá
TAF COR MPTO 242315Z 2500/2606 00000KT 9999 SCT018 SCT090 PROB30 TEMPO 2508/2512 6000 TSRA SCT017CB SCT090 PROB30 TEMPO 2518/2522 19006KT 5000 TSRA SCT017CB SCT090
Paraguay
TAF SGAS 242312Z 2500/2600 05011KT 9999 SCT030 TX32/2518Z TN24/2510Z BECMG 2502/2505 04012KT 9999 BKN033 BECMG 2507/2510 7000 TSRA BKN020 FEW040CB BECMG 2512/2515 02010KT 9999 BKN033 BECMG 2518/2521 9999 SCT027
Venezuela
TAF SVMI 242200Z 2500/2600 14010KT 9999 SCT013 TX34/18Z TN24/09Z BECMG 2500/2504 12006KT BKN016

* Datos extraidos del Text DataServer de la NOAA (NOAA TEXT DATA SERVER)

Instituto Uruguayo de Meteorología

Dr. Javier Barrios Amorín 1488 - CP 11200
Mesa Central (598) 1895

Montevideo - Uruguay